Time;durP1;ratioP1;P1;durP2;ratioP2;P2;SDS_P1;SDS_P2;PMS_P1;PMS_P2;Temp;Humidity;BMP_temperature;BMP_pressure;BME280_temperature;BME280_humidity;BME280_pressure;Samples;Min_cycle;Max_cycle;Signal;HPM_P1;HPM_P2
2021/09/12 00:01:31;;;;;;;;;13.50;13.50;;;;;18.53;53.00;101047.00;5078150;27;45726;-67
2021/09/12 00:03:56;;;;;;;;;18.50;15.50;;;;;18.53;53.43;101047.00;5076583;27;45300;-67
2021/09/12 00:06:22;;;;;;;;;14.25;13.75;;;;;18.47;53.23;101034.09;5077540;27;46091;-69
2021/09/12 00:08:47;;;;;;;;;19.00;15.00;;;;;18.52;53.29;101041.75;5077895;27;45306;-66
2021/09/12 00:11:13;;;;;;;;;17.00;13.75;;;;;18.49;53.14;101042.81;5077562;27;45379;-67
2021/09/12 00:13:41;;;;;;;;;16.00;16.00;;;;;18.52;53.35;101047.94;5077661;27;45204;-68
2021/09/12 00:16:06;;;;;;;;;15.50;15.50;;;;;18.46;53.73;101034.16;5076969;27;46647;-69
2021/09/12 00:18:31;;;;;;;;;16.00;15.25;;;;;18.57;53.48;101046.78;5077302;28;45437;-68
2021/09/12 00:20:57;;;;;;;;;18.25;17.00;;;;;18.57;53.42;101053.00;5076037;28;45447;-69
2021/09/12 00:23:22;;;;;;;;;16.25;13.25;;;;;18.58;53.40;101045.84;5077749;27;45379;-68
2021/09/12 00:25:48;;;;;;;;;15.50;13.25;;;;;18.56;53.48;101042.41;5077105;27;46442;-70
2021/09/12 00:28:13;;;;;;;;;17.25;14.25;;;;;18.57;53.17;101044.13;5077195;27;45401;-68
2021/09/12 00:30:38;;;;;;;;;15.75;13.50;;;;;18.61;53.27;101046.50;5077491;27;45276;-69
2021/09/12 00:33:04;;;;;;;;;18.75;14.25;;;;;18.62;53.59;101050.88;5077277;27;45655;-67
2021/09/12 00:35:29;;;;;;;;;20.75;14.25;;;;;18.59;53.52;101037.75;5076877;28;45494;-68
2021/09/12 00:37:54;;;;;;;;;19.50;18.50;;;;;18.57;53.67;101036.13;5076796;27;45492;-67
2021/09/12 00:40:21;;;;;;;;;20.75;17.50;;;;;18.60;53.54;101047.44;5075936;28;45378;-68
2021/09/12 00:42:47;;;;;;;;;16.75;14.75;;;;;18.60;53.67;101038.59;5077436;28;45433;-68
2021/09/12 00:45:13;;;;;;;;;16.50;14.50;;;;;18.60;53.80;101043.91;5077157;27;46330;-71
2021/09/12 00:47:39;;;;;;;;;13.25;12.25;;;;;18.58;53.74;101038.72;5077022;27;45268;-68
2021/09/12 00:50:05;;;;;;;;;18.50;17.00;;;;;18.48;54.08;101032.25;5077030;27;45284;-67
2021/09/12 00:52:33;;;;;;;;;13.75;11.00;;;;;18.56;53.90;101042.41;5077434;27;45257;-71
2021/09/12 00:55:01;;;;;;;;;13.75;12.25;;;;;18.48;54.38;101040.25;5076526;28;47352;-71
2021/09/12 00:57:27;;;;;;;;;11.50;10.75;;;;;18.51;54.33;101040.91;5076745;28;45281;-72
2021/09/12 00:59:54;;;;;;;;;17.50;15.00;;;;;18.50;54.71;101047.19;5077100;27;45401;-72
2021/09/12 01:02:20;;;;;;;;;15.75;14.00;;;;;18.43;54.99;101031.72;5077190;27;45231;-68
2021/09/12 01:04:46;;;;;;;;;16.00;14.50;;;;;18.44;55.02;101036.94;5075162;28;47285;-68
2021/09/12 01:07:12;;;;;;;;;20.25;19.25;;;;;18.38;55.24;101043.53;5076421;27;45889;-67
2021/09/12 01:09:38;;;;;;;;;16.50;15.25;;;;;18.36;55.57;101044.59;5076618;27;45423;-67
2021/09/12 01:12:06;;;;;;;;;19.50;16.25;;;;;18.30;55.60;101040.50;5076626;27;45528;-66
2021/09/12 01:14:32;;;;;;;;;20.25;16.00;;;;;18.27;56.05;101029.22;5075858;27;46220;-66
2021/09/12 01:16:59;;;;;;;;;19.00;15.25;;;;;18.26;56.11;101028.34;5075957;28;45334;-68
2021/09/12 01:19:24;;;;;;;;;17.50;14.50;;;;;18.24;56.03;101019.63;5076396;28;45375;-67
2021/09/12 01:22:05;;;;;;;;;15.00;15.00;;;;;18.26;56.34;101031.03;5076889;27;45645;-68
2021/09/12 01:24:33;;;;;;;;;14.00;14.00;;;;;18.22;56.19;101021.53;5091294;27;46945;-67
2021/09/12 01:26:59;;;;;;;;;18.25;15.50;;;;;18.19;55.82;101022.59;5074603;28;45377;-66
2021/09/12 01:29:25;;;;;;;;;16.50;15.25;;;;;18.15;55.81;101012.22;5076479;27;45378;-68
2021/09/12 01:31:50;;;;;;;;;16.50;14.25;;;;;18.14;55.85;101019.38;5076743;27;45520;-66
2021/09/12 01:34:15;;;;;;;;;16.00;14.00;;;;;18.13;56.17;101025.66;5076169;27;45443;-69
2021/09/12 01:36:41;;;;;;;;;11.75;10.75;;;;;18.05;56.53;101026.16;5076339;27;45480;-67
2021/09/12 01:39:07;;;;;;;;;15.75;15.25;;;;;18.06;56.58;101027.00;5075445;27;45314;-68
2021/09/12 01:41:34;;;;;;;;;16.25;13.75;;;;;17.95;56.99;101012.53;5091953;27;45564;-69
2021/09/12 01:44:02;;;;;;;;;14.25;13.00;;;;;17.99;56.87;101020.31;5074474;27;45376;-68
2021/09/12 01:46:27;;;;;;;;;17.75;16.00;;;;;17.93;57.03;101014.44;5075876;27;45215;-67
2021/09/12 01:48:56;;;;;;;;;17.75;15.00;;;;;17.94;57.14;101018.81;5076004;27;45223;-67
2021/09/12 01:51:21;;;;;;;;;15.75;12.25;;;;;17.93;56.91;101021.59;5076574;27;45350;-69
2021/09/12 01:53:48;;;;;;;;;13.50;11.50;;;;;17.91;56.70;101012.84;5075797;27;46175;-69
2021/09/12 01:56:14;;;;;;;;;12.50;12.50;;;;;17.92;56.95;101019.88;5073973;28;46060;-68
2021/09/12 01:58:39;;;;;;;;;12.25;10.25;;;;;17.89;56.83;101015.59;5075597;27;45346;-67
2021/09/12 02:01:05;;;;;;;;;13.00;12.50;;;;;17.89;56.55;101018.25;5075761;27;45440;-68
2021/09/12 02:03:31;;;;;;;;;14.00;13.00;;;;;17.85;56.72;101014.09;5075468;28;45526;-68
2021/09/12 02:05:56;;;;;;;;;16.25;11.00;;;;;17.86;56.70;101007.81;5075870;28;45417;-68
2021/09/12 02:08:21;;;;;;;;;12.25;10.25;;;;;17.86;56.39;101017.63;5075771;27;45421;-70
2021/09/12 02:10:47;;;;;;;;;10.75;9.75;;;;;17.82;56.21;101008.97;5076088;27;45805;-73
2021/09/12 02:13:12;;;;;;;;;8.25;7.75;;;;;17.79;56.30;101018.00;5074112;28;47291;-72
2021/09/12 02:15:38;;;;;;;;;12.00;8.50;;;;;17.79;56.48;101011.81;5073993;28;45271;-69
2021/09/12 02:18:04;;;;;;;;;8.50;7.75;;;;;17.77;56.28;101016.38;5075589;28;45347;-72
2021/09/12 02:20:29;;;;;;;;;7.00;7.00;;;;;17.78;56.71;101024.28;5075508;27;45184;-71
2021/09/12 02:22:55;;;;;;;;;9.00;8.75;;;;;17.73;56.54;101014.88;5075639;27;45666;-70
2021/09/12 02:25:21;;;;;;;;;10.00;9.00;;;;;17.72;56.27;101021.13;5075186;27;45452;-74
2021/09/12 02:27:46;;;;;;;;;9.00;8.50;;;;;17.72;56.40;101031.78;5075435;27;45495;-72
2021/09/12 02:30:12;;;;;;;;;9.50;9.25;;;;;17.70;56.51;101025.69;5075845;27;45417;-74
2021/09/12 02:32:37;;;;;;;;;9.00;9.00;;;;;17.67;56.73;101029.44;5074947;27;46567;-70
2021/09/12 02:35:03;;;;;;;;;5.75;5.75;;;;;17.65;56.82;101037.50;5075027;27;45434;-66
2021/09/12 02:37:29;;;;;;;;;8.00;8.00;;;;;17.62;56.93;101032.38;5075059;27;45392;-67
2021/09/12 02:39:54;;;;;;;;;9.00;9.00;;;;;17.59;56.88;101032.56;5075516;27;45466;-66
2021/09/12 02:42:20;;;;;;;;;10.50;9.50;;;;;17.61;56.83;101037.78;5074992;27;45499;-66
2021/09/12 02:44:45;;;;;;;;;10.00;8.00;;;;;17.57;57.02;101033.63;5075004;27;45377;-72
2021/09/12 02:47:10;;;;;;;;;12.00;9.00;;;;;17.57;56.98;101037.13;5075536;27;45313;-67
2021/09/12 02:49:36;;;;;;;;;7.50;6.50;;;;;17.54;57.02;101034.66;5075506;27;45346;-67
2021/09/12 02:52:02;;;;;;;;;12.50;8.50;;;;;17.53;57.15;101032.94;5073826;27;47375;-67
2021/09/12 02:54:28;;;;;;;;;7.25;7.00;;;;;17.52;57.17;101031.22;5075196;28;45237;-66
2021/09/12 02:56:53;;;;;;;;;8.00;7.50;;;;;17.44;57.32;101017.56;5075023;27;45392;-69
2021/09/12 02:59:18;;;;;;;;;9.50;7.75;;;;;17.42;57.17;101025.63;5075025;27;45203;-67
2021/09/12 03:01:43;;;;;;;;;8.00;6.25;;;;;17.37;57.35;101017.06;5074796;27;45337;-67
2021/09/12 03:04:09;;;;;;;;;11.00;7.00;;;;;17.35;57.52;101027.81;5074582;27;45394;-67
2021/09/12 03:06:34;;;;;;;;;8.00;7.00;;;;;17.32;57.59;101022.69;5073325;28;45263;-66
2021/09/12 03:09:00;;;;;;;;;10.50;9.00;;;;;17.26;57.91;101022.19;5075836;27;45821;-67
2021/09/12 03:11:25;;;;;;;;;8.75;8.00;;;;;17.23;58.07;101021.44;5076228;27;46154;-67
2021/09/12 03:13:51;;;;;;;;;12.50;10.75;;;;;17.19;58.24;101021.75;5073725;28;45270;-67
2021/09/12 03:16:16;;;;;;;;;10.50;9.00;;;;;17.17;58.33;101018.31;5074474;27;45400;-67
2021/09/12 03:18:44;;;;;;;;;6.50;6.00;;;;;17.13;58.54;101016.81;5073599;28;45359;-66
2021/09/12 03:21:09;;;;;;;;;14.00;10.25;;;;;17.11;58.54;101024.00;5074405;27;45519;-67
2021/09/12 03:23:35;;;;;;;;;12.25;8.75;;;;;17.07;58.86;101018.00;5073230;28;45505;-66
2021/09/12 03:26:00;;;;;;;;;11.25;10.50;;;;;17.02;58.94;101020.09;5073372;28;45370;-65
2021/09/12 03:28:26;;;;;;;;;10.00;9.50;;;;;17.01;59.16;101016.59;5074923;27;45317;-67
2021/09/12 03:30:51;;;;;;;;;11.00;10.00;;;;;16.99;59.25;101025.59;5074209;27;46613;-66
2021/09/12 03:33:17;;;;;;;;;12.00;9.00;;;;;16.92;59.19;101014.44;5074151;27;45460;-66
2021/09/12 03:35:42;;;;;;;;;10.50;10.25;;;;;16.87;59.22;101022.69;5074548;27;45253;-68
2021/09/12 03:38:09;;;;;;;;;12.75;12.25;;;;;16.75;59.43;101016.31;5073293;28;45225;-65
2021/09/12 03:40:34;;;;;;;;;12.50;10.50;;;;;16.67;59.90;101009.75;5074313;27;45675;-69
2021/09/12 03:43:00;;;;;;;;;12.50;11.50;;;;;16.61;59.83;101017.13;5074990;27;45272;-73
2021/09/12 03:45:25;;;;;;;;;11.25;10.00;;;;;16.55;60.36;101019.28;5074689;27;45251;-73
2021/09/12 03:47:51;;;;;;;;;12.00;10.25;;;;;16.48;60.23;101014.34;5074799;27;45476;-74
2021/09/12 03:50:16;;;;;;;;;11.00;10.75;;;;;16.39;60.96;101006.91;5090267;27;46175;-69
2021/09/12 03:52:42;;;;;;;;;10.75;9.50;;;;;16.42;60.85;101025.31;5074362;27;45432;-69
2021/09/12 03:55:10;;;;;;;;;8.00;8.00;;;;;16.39;61.23;101020.19;5074541;27;45708;-68
2021/09/12 03:57:37;;;;;;;;;12.50;10.50;;;;;16.38;61.38;101009.63;5074672;27;45412;-68
2021/09/12 04:00:07;;;;;;;;;14.50;10.75;;;;;16.36;61.42;101015.88;5089559;27;46314;-68
2021/09/12 04:02:32;;;;;;;;;13.25;11.00;;;;;16.30;61.43;101018.06;5076500;27;45400;-67
2021/09/12 04:04:57;;;;;;;;;14.25;11.50;;;;;16.26;61.34;101011.22;5077985;27;45411;-69
2021/09/12 04:07:23;;;;;;;;;13.25;12.50;;;;;16.21;61.76;101007.03;5077875;27;45408;-74
2021/09/12 04:09:48;;;;;;;;;15.50;11.00;;;;;16.14;61.90;101000.34;5075991;28;47353;-68
2021/09/12 04:12:13;;;;;;;;;14.75;12.25;;;;;16.12;62.10;101004.03;5076001;28;45423;-69
2021/09/12 04:14:39;;;;;;;;;11.00;10.75;;;;;16.06;62.21;100998.13;5077315;27;45387;-74
2021/09/12 04:17:04;;;;;;;;;15.00;11.25;;;;;16.09;62.00;101013.03;5077434;27;45373;-71
2021/09/12 04:19:29;;;;;;;;;15.25;13.25;;;;;16.06;62.16;100997.28;5077558;27;45446;-71
2021/09/12 04:21:55;;;;;;;;;11.75;10.50;;;;;16.05;62.74;101003.53;5075951;28;45606;-73
2021/09/12 04:24:21;;;;;;;;;17.50;13.75;;;;;16.05;62.58;101006.19;5077507;27;45492;-75
2021/09/12 04:26:46;;;;;;;;;14.75;13.50;;;;;16.01;62.69;100997.53;5077668;27;45559;-70
2021/09/12 04:29:12;;;;;;;;;13.00;12.00;;;;;16.01;62.60;101000.19;5076964;27;46449;-71
2021/09/12 04:31:37;;;;;;;;;14.25;14.25;;;;;16.01;63.12;101002.00;5075459;27;45412;-67
2021/09/12 04:34:03;;;;;;;;;13.50;12.25;;;;;15.93;62.97;100990.97;5077688;27;45286;-67
2021/09/12 04:36:28;;;;;;;;;11.00;11.00;;;;;15.88;63.28;100996.50;5077337;27;45617;-71
2021/09/12 04:38:53;;;;;;;;;15.25;13.00;;;;;15.90;63.27;101007.91;5075662;28;48329;-67
2021/09/12 04:41:19;;;;;;;;;13.75;11.50;;;;;15.88;63.13;101009.78;5077119;27;45299;-70
2021/09/12 04:43:44;;;;;;;;;12.25;12.25;;;;;15.87;63.61;101005.38;5075747;28;45293;-68
2021/09/12 04:46:10;;;;;;;;;13.00;12.50;;;;;15.82;63.91;101005.63;5077328;28;45613;-69
2021/09/12 04:48:35;;;;;;;;;15.25;13.00;;;;;15.76;63.71;100998.00;5077032;27;46280;-69
2021/09/12 04:51:00;;;;;;;;;16.75;13.00;;;;;15.74;63.84;101005.19;5077463;27;45359;-71
2021/09/12 04:53:26;;;;;;;;;18.50;12.75;;;;;15.71;64.33;101008.88;5076920;27;45287;-68
2021/09/12 04:55:51;;;;;;;;;12.75;12.25;;;;;15.57;64.14;100992.88;5077149;27;45365;-67
2021/09/12 04:58:17;;;;;;;;;13.50;12.50;;;;;15.66;64.18;101013.59;5076881;28;45422;-70
2021/09/12 05:00:42;;;;;;;;;18.00;14.50;;;;;15.67;64.37;101019.72;5076934;27;45440;-74
2021/09/12 05:03:08;;;;;;;;;16.25;12.50;;;;;15.60;64.22;101013.94;5076943;27;45485;-68
2021/09/12 05:05:33;;;;;;;;;12.75;12.75;;;;;15.60;64.46;101008.63;5077402;27;45626;-66
2021/09/12 05:07:58;;;;;;;;;14.00;13.75;;;;;15.60;64.60;101025.38;5076778;27;46148;-69
2021/09/12 05:10:24;;;;;;;;;10.75;6.00;;;;;15.56;65.15;101023.81;5093122;27;45338;-67
2021/09/12 05:12:49;;;;;;;;;12.75;12.25;;;;;15.57;64.85;101017.59;5075977;27;45389;-72
2021/09/12 05:15:15;;;;;;;;;13.00;12.25;;;;;15.55;64.40;101016.81;5076500;27;45393;-67
2021/09/12 05:17:40;;;;;;;;;12.75;12.00;;;;;15.56;64.95;101018.53;5074979;28;47399;-70
2021/09/12 05:20:06;;;;;;;;;21.00;15.50;;;;;15.57;64.79;101019.41;5076573;27;45447;-67
2021/09/12 05:22:32;;;;;;;;;17.75;12.75;;;;;15.57;64.56;101011.44;5076796;27;45312;-68
2021/09/12 05:24:57;;;;;;;;;14.50;14.25;;;;;15.54;64.17;101006.31;5076479;27;45286;-69
2021/09/12 05:27:23;;;;;;;;;13.50;12.00;;;;;15.52;64.00;101000.22;5076157;27;45368;-74
2021/09/12 05:29:48;;;;;;;;;17.25;15.00;;;;;15.56;64.41;101012.38;5074709;28;45429;-68
2021/09/12 05:32:14;;;;;;;;;16.25;14.00;;;;;15.55;64.43;101008.84;5076199;27;45310;-68
2021/09/12 05:34:39;;;;;;;;;10.75;10.75;;;;;15.56;64.29;101010.56;5076461;27;45583;-66
2021/09/12 05:37:05;;;;;;;;;12.00;11.00;;;;;15.55;64.46;101008.84;5076626;27;45820;-69
2021/09/12 05:39:30;;;;;;;;;13.25;12.75;;;;;15.56;64.73;101013.22;5076241;27;45334;-70
2021/09/12 05:41:55;;;;;;;;;15.75;13.25;;;;;15.53;64.86;101009.91;5074844;28;45371;-69
2021/09/12 05:44:21;;;;;;;;;18.00;13.50;;;;;15.60;65.42;101013.94;5076231;27;45301;-68
2021/09/12 05:46:47;;;;;;;;;14.75;13.25;;;;;15.63;65.17;101016.41;5075919;27;45382;-67
2021/09/12 05:49:13;;;;;;;;;16.25;13.25;;;;;15.59;65.18;101010.41;5075782;27;45353;-68
2021/09/12 05:51:38;;;;;;;;;17.75;14.25;;;;;15.62;65.00;101014.69;5075704;27;45290;-68
2021/09/12 05:54:04;;;;;;;;;13.00;12.50;;;;;15.64;64.83;101015.47;5076610;27;45254;-66
2021/09/12 05:56:29;;;;;;;;;14.00;14.00;;;;;15.63;64.96;101008.47;5076094;27;45396;-68
2021/09/12 05:58:54;;;;;;;;;19.50;15.75;;;;;15.65;64.71;101021.63;5075859;27;45442;-71
2021/09/12 06:01:20;;;;;;;;;16.50;15.25;;;;;15.66;65.13;101020.66;5076160;27;45956;-68
2021/09/12 06:03:46;;;;;;;;;15.00;13.00;;;;;15.65;65.00;101018.97;5076809;27;45412;-68
2021/09/12 06:06:12;;;;;;;;;13.75;11.50;;;;;15.67;65.68;101025.03;5075802;27;45721;-67
2021/09/12 06:08:37;;;;;;;;;15.25;12.25;;;;;15.71;65.55;101026.59;5076971;27;45326;-68
2021/09/12 06:11:02;;;;;;;;;16.50;13.25;;;;;15.71;65.45;101023.94;5076259;27;45348;-67
2021/09/12 06:13:28;;;;;;;;;14.50;13.75;;;;;15.73;65.47;101030.00;5075874;27;45616;-65
2021/09/12 06:15:53;;;;;;;;;15.00;12.50;;;;;15.78;65.43;101033.25;5075449;27;47683;-73
2021/09/12 06:18:19;;;;;;;;;15.00;14.50;;;;;15.78;65.66;101033.25;5074362;28;45474;-69
2021/09/12 06:20:44;;;;;;;;;16.00;14.50;;;;;15.81;65.80;101037.56;5074258;28;45289;-70
2021/09/12 06:23:09;;;;;;;;;14.50;14.00;;;;;15.81;65.43;101027.78;5075837;27;45615;-69
2021/09/12 06:25:35;;;;;;;;;17.50;14.25;;;;;15.84;65.47;101037.38;5075253;27;45354;-67
2021/09/12 06:28:00;;;;;;;;;14.50;14.50;;;;;15.85;65.81;101037.28;5075306;27;45275;-66
2021/09/12 06:30:25;;;;;;;;;18.50;16.25;;;;;15.87;65.85;101037.22;5075108;27;45927;-69
2021/09/12 06:32:51;;;;;;;;;17.75;15.00;;;;;15.85;66.02;101034.63;5075238;27;45157;-66
2021/09/12 06:35:17;;;;;;;;;15.25;14.25;;;;;15.87;65.66;101038.09;5074985;27;46149;-67
2021/09/12 06:37:48;;;;;;;;;16.75;16.50;;;;;15.86;66.29;101039.00;5075142;27;45431;-67
2021/09/12 06:40:14;;;;;;;;;17.25;15.75;;;;;15.88;66.00;101028.34;5075472;28;45344;-67
2021/09/12 06:42:39;;;;;;;;;18.75;17.00;;;;;15.89;66.22;101040.66;5075834;27;45512;-66
2021/09/12 06:45:06;;;;;;;;;17.75;16.25;;;;;15.85;66.07;101026.69;5075068;27;46982;-66
2021/09/12 06:47:31;;;;;;;;;19.00;14.00;;;;;15.89;66.19;101033.56;5073472;28;45816;-66
2021/09/12 06:49:58;;;;;;;;;17.00;17.00;;;;;15.93;66.11;101041.38;5074819;27;45564;-66
2021/09/12 06:52:23;;;;;;;;;20.25;19.75;;;;;15.94;65.83;101043.91;5075155;27;45434;-65
2021/09/12 06:54:49;;;;;;;;;20.50;20.00;;;;;15.97;66.06;101027.00;5074994;27;45430;-68
2021/09/12 06:57:14;;;;;;;;;23.25;23.25;;;;;16.03;65.79;101034.59;5075268;27;45388;-67
2021/09/12 06:59:39;;;;;;;;;16.00;16.00;;;;;16.03;65.54;101021.34;5074463;28;45356;-68
2021/09/12 07:02:05;;;;;;;;;18.25;17.25;;;;;16.11;65.67;101029.72;5075814;27;45279;-68
2021/09/12 07:04:30;;;;;;;;;19.50;17.75;;;;;16.04;65.57;101018.59;5074667;27;45417;-68
2021/09/12 07:06:55;;;;;;;;;19.00;17.00;;;;;16.13;65.63;101027.84;5074949;27;45385;-73
2021/09/12 07:09:21;;;;;;;;;21.75;19.50;;;;;16.14;65.65;101024.25;5074668;27;45445;-68
2021/09/12 07:11:46;;;;;;;;;16.50;15.50;;;;;16.17;65.53;101025.84;5074721;27;45686;-71
2021/09/12 07:14:12;;;;;;;;;17.50;16.25;;;;;16.19;65.21;101019.53;5074650;27;46431;-66
2021/09/12 07:16:37;;;;;;;;;17.50;16.25;;;;;16.26;64.80;101030.63;5074961;28;45274;-69
2021/09/12 07:19:07;;;;;;;;;17.25;15.25;;;;;16.32;64.90;101021.47;5075063;27;45415;-70
2021/09/12 07:21:33;;;;;;;;;23.00;17.50;;;;;16.36;64.84;101017.69;5075159;27;45626;-74
2021/09/12 07:23:59;;;;;;;;;21.50;18.00;;;;;16.52;64.43;101032.75;5073222;28;46248;-71
2021/09/12 07:26:27;;;;;;;;;26.25;19.75;;;;;16.60;64.43;101035.81;5090162;27;45864;-69
2021/09/12 07:28:52;;;;;;;;;20.25;19.00;;;;;16.59;63.68;101018.16;5074991;27;45359;-70
2021/09/12 07:31:18;;;;;;;;;17.00;14.50;;;;;16.75;63.63;101032.25;5075526;27;45605;-76
2021/09/12 07:33:43;;;;;;;;;14.50;12.50;;;;;16.82;63.12;101039.84;5074818;27;45376;-69
2021/09/12 07:36:08;;;;;;;;;17.50;15.75;;;;;16.84;63.55;101033.50;5075705;27;45357;-68
2021/09/12 07:38:34;;;;;;;;;15.50;14.25;;;;;16.94;63.13;101039.97;5078526;27;45334;-68
2021/09/12 07:40:59;;;;;;;;;14.75;13.75;;;;;17.00;62.93;101037.94;5077296;27;45354;-72
2021/09/12 07:43:25;;;;;;;;;15.00;13.25;;;;;17.06;63.11;101025.16;5077953;27;46465;-73
2021/09/12 07:45:51;;;;;;;;;17.50;16.75;;;;;17.19;62.75;101029.72;5077817;27;45277;-70
2021/09/12 07:48:16;;;;;;;;;21.00;18.00;;;;;17.32;62.46;101041.31;5076466;28;45275;-68
2021/09/12 07:50:43;;;;;;;;;17.75;16.00;;;;;17.42;61.65;101033.59;5078362;27;45526;-66
2021/09/12 07:53:08;;;;;;;;;17.75;14.00;;;;;17.52;61.57;101036.56;5077769;27;45686;-68
2021/09/12 07:55:34;;;;;;;;;20.00;14.00;;;;;17.63;61.31;101035.91;5077825;27;45771;-68
2021/09/12 07:57:59;;;;;;;;;16.25;15.75;;;;;17.79;61.00;101041.09;5077938;27;45367;-66
2021/09/12 08:00:25;;;;;;;;;15.75;14.75;;;;;17.85;60.52;101037.19;5077588;27;45549;-63
2021/09/12 08:02:50;;;;;;;;;22.25;20.75;;;;;17.93;60.49;101041.06;5077318;27;46421;-61
2021/09/12 08:05:16;;;;;;;;;12.75;12.25;;;;;17.98;60.34;101039.91;5077534;27;45363;-62
2021/09/12 08:07:41;;;;;;;;;13.00;10.75;;;;;18.03;59.66;101038.69;5078035;27;45351;-60
2021/09/12 08:10:07;;;;;;;;;14.75;13.75;;;;;18.16;59.28;101040.56;5077821;27;45493;-63
2021/09/12 08:12:32;;;;;;;;;16.50;15.00;;;;;18.24;58.97;101038.25;5077314;27;45473;-66
2021/09/12 08:14:58;;;;;;;;;13.00;13.00;;;;;18.34;58.64;101039.34;5077118;27;45800;-65
2021/09/12 08:17:23;;;;;;;;;10.50;10.25;;;;;18.48;58.34;101037.59;5077372;27;45320;-60
2021/09/12 08:19:48;;;;;;;;;18.00;12.50;;;;;18.62;57.71;101039.34;5077404;27;45391;-60
2021/09/12 08:22:14;;;;;;;;;14.00;12.00;;;;;18.74;57.24;101043.00;5076564;27;45475;-62
2021/09/12 08:24:39;;;;;;;;;14.50;8.75;;;;;18.81;56.91;101045.13;5075269;27;45561;-63
2021/09/12 08:27:05;;;;;;;;;10.75;9.75;;;;;18.91;56.34;101058.69;5077282;27;45411;-62
2021/09/12 08:29:30;;;;;;;;;13.25;12.00;;;;;18.99;56.24;101050.19;5077633;27;45319;-61
2021/09/12 08:31:57;;;;;;;;;18.00;17.00;;;;;19.05;55.61;101055.09;5092765;27;47597;-60
2021/09/12 08:34:23;;;;;;;;;11.50;10.25;;;;;19.16;55.59;101057.03;5075682;28;45457;-63
2021/09/12 08:36:49;;;;;;;;;11.75;9.75;;;;;19.24;54.63;101053.88;5075666;27;45379;-63
2021/09/12 08:39:15;;;;;;;;;9.25;7.25;;;;;19.31;54.73;101049.81;5076623;27;45669;-60
2021/09/12 08:41:40;;;;;;;;;9.50;6.75;;;;;19.35;53.59;101032.63;5077776;27;45760;-62
2021/09/12 08:44:07;;;;;;;;;8.50;6.25;;;;;19.40;53.60;101043.81;5077833;27;45442;-62
2021/09/12 08:46:33;;;;;;;;;9.75;7.25;;;;;19.48;52.97;101047.75;5077324;27;45293;-60
2021/09/12 08:48:59;;;;;;;;;9.50;8.00;;;;;19.59;52.42;101047.84;5076162;27;45625;-62
2021/09/12 08:51:24;;;;;;;;;11.00;11.00;;;;;19.70;52.65;101055.09;5077115;27;45338;-61
2021/09/12 08:53:50;;;;;;;;;9.50;8.00;;;;;19.80;52.39;101053.47;5077379;27;45404;-63
2021/09/12 08:56:16;;;;;;;;;9.25;8.00;;;;;19.89;51.95;101037.75;5077787;27;45343;-62
2021/09/12 08:58:41;;;;;;;;;11.75;5.50;;;;;19.98;51.87;101043.31;5077251;27;45153;-61
2021/09/12 09:01:07;;;;;;;;;15.25;14.50;;;;;20.08;51.65;101045.31;5077050;27;46253;-65
2021/09/12 09:03:37;;;;;;;;;16.50;16.50;;;;;20.10;51.23;101038.03;5076980;27;45309;-61
2021/09/12 09:06:14;;;;;;;;;18.00;15.75;;;;;20.19;51.20;101034.72;5077083;27;45361;-65
2021/09/12 09:09:09;;;;;;;;;9.50;9.50;;;;;20.33;50.76;101033.66;5076930;27;45290;-61
2021/09/12 09:11:37;;;;;;;;;5.25;5.00;;;;;20.46;49.82;101033.63;5071545;27;45485;-62
2021/09/12 09:14:14;;;;;;;;;11.25;11.25;;;;;20.62;50.52;101037.78;5076019;27;45524;-63
2021/09/12 09:16:41;;;;;;;;;5.50;5.50;;;;;20.78;49.42;101040.16;5092281;27;45286;-63
2021/09/12 09:19:08;;;;;;;;;5.75;5.25;;;;;20.83;49.70;101038.88;5076786;27;45326;-63
2021/09/12 09:21:41;;;;;;;;;6.25;4.00;;;;;20.95;48.96;101045.09;5076471;27;46260;-62
2021/09/12 09:24:22;;;;;;;;;7.25;6.50;;;;;21.02;49.24;101045.47;5076265;28;45227;-64
2021/09/12 09:26:53;;;;;;;;;5.50;5.50;;;;;21.08;49.33;101042.31;5076569;27;45436;-63
2021/09/12 09:29:27;;;;;;;;;4.00;4.00;;;;;21.16;47.85;101047.09;5076782;27;45431;-66
2021/09/12 09:32:04;;;;;;;;;6.00;6.00;;;;;21.21;47.58;101038.72;5075964;27;45471;-65
2021/09/12 09:34:32;;;;;;;;;4.75;4.75;;;;;21.26;47.61;101036.53;5076603;28;45324;-66
2021/09/12 09:37:10;;;;;;;;;5.25;5.00;;;;;21.28;47.16;101040.78;5076165;27;45460;-64
2021/09/12 09:39:43;;;;;;;;;4.25;4.00;;;;;21.26;47.25;101041.88;5076305;27;45359;-66
2021/09/12 09:42:32;;;;;;;;;6.25;5.25;;;;;21.27;47.84;101048.94;5074951;28;47982;-64
2021/09/12 09:45:05;;;;;;;;;6.25;6.25;;;;;21.31;46.57;101039.69;5075960;28;45259;-65
2021/09/12 09:47:31;;;;;;;;;5.00;5.00;;;;;21.38;47.22;101032.00;5074698;28;45407;-65
2021/09/12 09:50:09;;;;;;;;;4.25;4.00;;;;;21.44;46.96;101040.41;5074822;28;45486;-65
2021/09/12 09:52:39;;;;;;;;;5.75;4.75;;;;;21.38;46.42;101032.88;5075802;27;45242;-63
2021/09/12 09:55:05;;;;;;;;;19.50;18.75;;;;;21.35;46.87;101035.81;5074148;28;45401;-64
2021/09/12 09:57:31;;;;;;;;;7.50;6.50;;;;;21.41;46.91;101040.66;5076185;28;45333;-62
2021/09/12 09:59:59;;;;;;;;;8.25;8.25;;;;;21.47;47.21;101033.13;5075560;27;45483;-62
2021/09/12 10:02:25;;;;;;;;;5.00;5.00;;;;;21.58;47.07;101035.78;5076109;27;46603;-67
2021/09/12 10:04:51;;;;;;;;;6.50;6.25;;;;;21.72;45.79;101032.88;5075134;28;45317;-62
2021/09/12 10:07:19;;;;;;;;;4.75;4.75;;;;;21.81;46.20;101041.16;5075406;27;45358;-64
2021/09/12 10:09:45;;;;;;;;;4.75;4.75;;;;;21.83;46.52;101034.72;5075284;27;45612;-63
2021/09/12 10:12:12;;;;;;;;;6.75;5.00;;;;;21.84;46.33;101024.84;5075835;27;45429;-68
2021/09/12 10:14:40;;;;;;;;;5.00;4.75;;;;;21.91;46.10;101028.72;5075768;28;45231;-67
2021/09/12 10:17:13;;;;;;;;;6.00;6.00;;;;;22.01;45.78;101018.94;5075380;27;45463;-67
2021/09/12 10:19:40;;;;;;;;;8.00;8.00;;;;;22.13;45.24;101014.44;5091451;27;45262;-65
2021/09/12 10:22:15;;;;;;;;;5.75;5.75;;;;;22.22;45.03;101022.69;5074957;27;45284;-66
2021/09/12 10:25:02;;;;;;;;;12.25;10.00;;;;;22.35;45.50;101020.69;5075180;27;45260;-65
2021/09/12 10:27:34;;;;;;;;;8.25;7.00;;;;;22.52;45.27;101019.31;5075388;28;45426;-66
2021/09/12 10:30:36;;;;;;;;;4.00;4.00;;;;;22.68;44.81;101015.31;5075119;27;45549;-65
2021/09/12 10:33:05;;;;;;;;;11.50;8.25;;;;;22.82;44.55;101015.00;5073461;27;46255;-66
2021/09/12 10:35:47;;;;;;;;;4.00;4.00;;;;;22.90;44.31;101008.97;5075297;27;45482;-67
2021/09/12 10:38:37;;;;;;;;;4.25;4.25;;;;;22.92;44.13;101015.06;5075049;27;45327;-68
2021/09/12 10:41:02;;;;;;;;;9.00;6.00;;;;;22.89;44.80;101010.81;5090629;27;45499;-65
2021/09/12 10:43:29;;;;;;;;;7.50;7.00;;;;;22.90;43.96;101012.50;5074761;27;45385;-66
2021/09/12 10:46:03;;;;;;;;;4.00;4.00;;;;;22.85;43.92;101006.69;5074815;27;45440;-67
2021/09/12 10:49:03;;;;;;;;;10.00;7.00;;;;;22.79;44.33;101009.88;5075318;27;45314;-65
2021/09/12 10:51:30;;;;;;;;;10.00;7.25;;;;;22.79;44.24;100999.16;5074824;27;45351;-65
2021/09/12 10:53:55;;;;;;;;;6.00;5.00;;;;;22.77;44.37;101010.00;5074278;27;45368;-61
2021/09/12 10:56:21;;;;;;;;;7.00;5.25;;;;;22.75;44.22;101014.66;5074869;28;45365;-66
2021/09/12 10:58:52;;;;;;;;;6.50;5.00;;;;;22.72;44.39;101008.72;5074469;28;45218;-65
2021/09/12 11:01:38;;;;;;;;;8.00;8.00;;;;;22.67;44.19;101000.22;5089874;27;45371;-65
2021/09/12 11:04:04;;;;;;;;;6.50;4.75;;;;;22.76;44.25;101004.78;5074050;27;45273;-65
2021/09/12 11:06:32;;;;;;;;;3.75;3.50;;;;;22.79;44.09;100998.31;5072820;27;45199;-67
2021/09/12 11:08:59;;;;;;;;;8.75;5.00;;;;;22.83;44.32;100995.25;5074141;28;45321;-64
2021/09/12 11:11:26;;;;;;;;;5.50;5.25;;;;;22.98;44.04;100994.91;5073897;27;45466;-65
2021/09/12 11:13:53;;;;;;;;;6.25;6.25;;;;;23.07;43.98;100988.72;5077860;27;46354;-64